Pagrindinis puslapis
METAR-TAF:

METAR-TAF

Oro uostai :

Ščecinas, Lenkija

platuma: 53-35N, ilguma: 014-54E, Aukštis: 1 m

Dabartinis oras

Ataskaita buvo paskelbta 29 minutes, ne 11:00 UTC
Vėjas 12 kt iš Šiaurės, svyruoja nuo Šiaurės/Šiaurės Vakarų ir Rytų/Šiaurės Rytų
Temperatūra 19°C
Drėgmė 49%
Slėgis 1021 hPa
Matomumas 10 km arba daugiau
nėra debesų žemiau 1500 m ir nėra kamuolinių lietaus debesų

METAR: EPSC 311100Z 36012KT 330V070 CAVOK 19/08 Q1021

Laikas: 13:29 (11:29 UTC)

Prognozė

Ataskaita buvo paskelbta 5 valandos ir 59 minutes, ne 05:30 UTC
Prognozė galioja nuo 31 metu 06 UTC su 01 metu 06 UTC
Vėjas 12 kt iš Šiaurės
Matomumas 10 km arba daugiau
nėra debesų žemiau 1500 m ir nėra kamuolinių lietaus debesų
Laikinai
nuo 31 metu 08 UTC su 31 metu 18 UTC
Vėjas 18 kt iš Šiaurės/Šiaurės Rytų su gūsio iki 32 kt

TAF: EPSC 310530Z 3106/0106 01012KT CAVOK TEMPO 3108/3118 03018G32KT

Orai ataskaitas ir orų prognozės (METAR, TAF).

turimą stotys yra geltonos ir raudonos taškus žemėlapyje.

Perkelti pele per norėdami pamatyti stoties vardą.

Tada spustelėkite, norėdami matyti oro stebėjimo ir prognozės.

Norėdami pakeisti žemėlapį: spustelėkite ant žalios mygtukų su juodo kryžiaus žemyn,; žalią mygtuką su brūkšneliu, jei norite nutolinti; arba žalių rodyklių gretimoms žemėlapius.


METAR-TAF: